x

Stannard Rock, Mi (stdm4) Weather Station

3:00pm - Sun 29th Mar 2015 All times are CDT. -5 hours from GMT.

  • Wind
    5mph
  • Air Temp 31°f
  • Sea Pressure 997.5mb
  • Stannard Rock, Mi
  • Stannard Rock, Mi

More Historic Weather Station data

Upgrade to MSW Pro to gain access to the past 30 days of data for over 8000 Wavebouys and Weather Stations around the globe.

Join Pro

Comparision Forecast

View Surf forecast
   
Sun 03/29 3:00pm 5
mph
997.5mb 31f
2:00pm 17 20 mph 998.2mb 31f
1:00pm 32 36 mph 999.3mb 31f
12:00pm 30 32 mph 1000.9mb 31f
11:00am 30 33 mph 1001.8mb 30f
10:00am 40 46 mph 1002.4mb 32f
9:00am 43 46 mph 1003.3mb 31f
8:00am 39 41 mph 1005.6mb 30f
7:00am 37 40 mph 1007.8mb 30f
6:00am 34 37 mph 1009.6mb 30f
5:00am 24 25 mph 1011.7mb 30f
4:00am 26 29 mph 1012.4mb 30f
3:00am 28 29 mph 1013.2mb 31f
2:00am 24 26 mph 1014.4mb 30f
1:00am 26 29 mph 1015.2mb 30f
12:00am 28 30 mph 1016.1mb 29f
Sat 03/28 11:00pm 29 31 mph 1017.2mb 29f
10:00pm 28 30 mph 1018.1mb 29f
9:00pm 20 21 mph 1019.3mb 25f
8:00pm 20 21 mph 1020.3mb 24f
7:00pm 20
mph
1020.7mb 27f
6:00pm 15
mph
1021.5mb 26f
5:00pm 14
mph
1022.3mb 26f
4:00pm 13 14 mph 1023.1mb 26f
3:00pm 6 7 mph 1024.1mb 26f
2:00pm 7 8 mph 1024.8mb 25f
1:00pm 9 10 mph 1025.5mb 25f
12:00pm 8 10 mph 1026.3mb 23f
11:00am 9 10 mph 1026.6mb 22f
10:00am 9 10 mph 1026.8mb 21f
9:00am 9 10 mph 1026.9mb 20f
8:00am 8 9 mph 1026.8mb 19f
7:00am 7
mph
1026.6mb 18f
6:00am 7 8 mph 1026.3mb 17f
5:00am 6 7 mph 1025.8mb 17f
4:00am 7
mph
1025.3mb 17f
3:00am 5 6 mph 1025.6mb 17f
2:00am 6
mph
1025.6mb 16f
1:00am 5 6 mph 1025.4mb 16f
12:00am 8
mph
1025.5mb 15f
Fri 03/27 11:00pm 7 9 mph 1025.5mb 15f
10:00pm 2
mph
1025.4mb 15f
9:00pm 6
mph
1025.5mb 15f
8:00pm  -  2 mph 1025.5mb 15f
7:00pm 5 6 mph 1025.6mb 15f
6:00pm 8
mph
1025.6mb 15f
5:00pm 9 10 mph 1025.7mb 15f
4:00pm 8 10 mph 1025.8mb 14f
3:00pm 8 9 mph 1026mb 13f
2:00pm 9 10 mph 1026.4mb 12f
1:00pm 7 9 mph 1026.9mb 11f
12:00pm 10 11 mph 1027.3mb 10f
11:00am 10 11 mph 1027.7mb 10f
10:00am 10 13 mph 1027.8mb 9f
9:00am 15 16 mph 1027.6mb 8f
8:00am 16 17 mph 1027.1mb 7f
7:00am 21
mph
1026.7mb 7f
6:00am 20 22 mph 1026.2mb 7f
5:00am 22 23 mph 1025.7mb 8f
4:00am 28 30 mph 1025.3mb 9f
3:00am 22 23 mph 1024.4mb 11f
2:00am 21
mph
1023.5mb 15f
1:00am 25 28 mph 1023.3mb 17f
12:00am 25 28 mph 1022.8mb 18f
Thu 03/26 11:00pm 23 25 mph 1022.4mb 18f
10:00pm 28 30 mph 1022.1mb 18f
9:00pm 26 30 mph 1021.7mb 19f
8:00pm 25 29 mph 1021mb 20f
7:00pm 24 26 mph 1020.2mb 19f
6:00pm 25 29 mph 1019.6mb 19f
5:00pm 28 30 mph 1018.8mb 18f
4:00pm 28 30 mph 1018mb 18f
3:00pm 32 37 mph 1017.7mb 17f
2:00pm 31 36 mph 1017.5mb 17f
1:00pm 30 36 mph 1017.3mb 17f
12:00pm 26 30 mph 1016.9mb 17f
11:00am 30 33 mph 1016.8mb 17f
10:00am 30 33 mph 1016.3mb 17f
9:00am 33 37 mph 1014.9mb 18f
8:00am 36 39 mph 1013.3mb 20f
7:00am 38 41 mph 1012.2mb 22f
6:00am 38 41 mph 1010.1mb 26f
5:00am 22 23 mph 1009.6mb 31f
4:00am 21 22 mph 1009.2mb 32f
3:00am 28 31 mph 1008.7mb 32f
2:00am 29 32 mph 1008.3mb 32f
1:00am 28 31 mph 1007.9mb 32f
12:00am 31 34 mph 1007.3mb 33f
Wed 03/25 11:00pm 30 33 mph 1006.9mb 33f
10:00pm 11 13 mph 1007.4mb 32f